createdAt,value
2022-09-29T00:01:02.438Z,5.91
2022-09-29T00:03:29.308Z,5.86
2022-09-29T00:05:56.429Z,5.92
2022-09-29T00:08:25.618Z,5.90
2022-09-29T00:10:52.163Z,5.89
2022-09-29T00:13:19.157Z,5.94
2022-09-29T00:15:45.806Z,5.91
2022-09-29T00:18:14.574Z,5.97
2022-09-29T00:20:41.659Z,5.97
2022-09-29T00:23:08.188Z,5.96
2022-09-29T00:25:34.978Z,5.98
2022-09-29T00:28:01.515Z,5.98
2022-09-29T00:30:28.127Z,5.96
2022-09-29T00:32:54.599Z,5.94
2022-09-29T00:35:21.107Z,5.94
2022-09-29T00:37:47.604Z,5.99
2022-09-29T00:40:14.537Z,6.04
2022-09-29T00:42:40.995Z,6.00
2022-09-29T00:45:19.006Z,6.07
2022-09-29T00:47:50.107Z,5.97
2022-09-29T00:50:42.572Z,6.00
2022-09-29T00:53:12.233Z,6.05
2022-09-29T00:55:45.778Z,6.01
2022-09-29T00:58:33.623Z,5.85
2022-09-29T01:01:00.385Z,5.67
2022-09-29T01:03:30.119Z,5.83
2022-09-29T01:06:03.269Z,5.86
2022-09-29T01:08:39.585Z,6.05
2022-09-29T01:11:06.482Z,6.09
2022-09-29T01:13:34.140Z,6.08
2022-09-29T01:16:00.662Z,5.99
2022-09-29T01:18:27.241Z,6.08
2022-09-29T01:21:09.068Z,6.08
2022-09-29T01:23:53.430Z,5.98
2022-09-29T01:26:47.795Z,5.98
2022-09-29T01:29:25.570Z,6.06
2022-09-29T01:32:07.635Z,6.06
2022-09-29T01:34:49.138Z,6.06
2022-09-29T01:37:31.915Z,6.03
2022-09-29T01:40:21.466Z,6.10
2022-09-29T01:42:47.814Z,6.10
2022-09-29T01:45:26.618Z,6.06
2022-09-29T01:47:56.664Z,6.08
2022-09-29T01:50:27.987Z,6.10
2022-09-29T01:53:05.212Z,6.12
2022-09-29T01:55:33.163Z,6.18
2022-09-29T01:58:03.017Z,6.24
2022-09-29T02:00:32.344Z,6.18
2022-09-29T02:03:02.202Z,5.87
2022-09-29T02:05:33.912Z,5.86
2022-09-29T02:08:07.634Z,5.95
2022-09-29T02:10:38.395Z,6.08
2022-09-29T02:13:05.428Z,6.06
2022-09-29T02:15:34.527Z,6.09
2022-09-29T02:18:05.509Z,6.14
2022-09-29T02:20:32.031Z,6.27
2022-09-29T02:22:58.478Z,6.34
2022-09-29T02:25:24.942Z,6.39
2022-09-29T02:27:51.595Z,6.38
2022-09-29T02:30:18.183Z,6.35
2022-09-29T02:32:46.147Z,6.45
2022-09-29T02:35:13.637Z,6.63
2022-09-29T02:38:06.224Z,6.63
2022-09-29T02:40:43.890Z,6.52
2022-09-29T02:43:41.332Z,6.51
2022-09-29T02:46:33.829Z,6.52
2022-09-29T02:49:15.526Z,6.56
2022-09-29T02:51:45.179Z,6.58
2022-09-29T02:54:55.458Z,6.60
2022-09-29T02:57:34.586Z,6.66
2022-09-29T03:00:13.760Z,6.67
2022-09-29T03:02:41.329Z,6.63
2022-09-29T03:05:10.291Z,6.67
2022-09-29T03:07:38.188Z,6.69
2022-09-29T03:10:05.824Z,6.70
2022-09-29T03:12:32.387Z,6.70
2022-09-29T03:14:59.025Z,6.74
2022-09-29T03:17:25.508Z,6.73
2022-09-29T03:19:51.976Z,6.65
2022-09-29T03:22:19.177Z,6.77
2022-09-29T03:24:45.757Z,6.73
2022-09-29T03:27:12.271Z,6.73
2022-09-29T03:29:38.736Z,6.80
2022-09-29T03:32:08.421Z,6.82
2022-09-29T03:34:35.309Z,6.80
2022-09-29T03:37:01.904Z,6.80
2022-09-29T03:39:28.543Z,6.86
2022-09-29T03:41:55.059Z,6.93
2022-09-29T03:44:23.718Z,6.97
2022-09-29T03:46:50.196Z,6.98
2022-09-29T03:49:16.730Z,7.00
2022-09-29T03:51:43.222Z,6.98
2022-09-29T03:54:09.849Z,7.04
2022-09-29T03:56:37.297Z,7.03
2022-09-29T03:59:05.424Z,7.03
2022-09-29T04:01:32.342Z,7.07
2022-09-29T04:03:58.927Z,7.07
2022-09-29T04:06:25.439Z,7.12
2022-09-29T04:08:51.902Z,7.16
2022-09-29T04:11:18.363Z,7.17
2022-09-29T04:13:44.815Z,7.18
2022-09-29T04:16:11.652Z,7.23
2022-09-29T04:18:38.167Z,7.28
2022-09-29T04:21:08.096Z,7.24
2022-09-29T04:23:34.769Z,7.28
2022-09-29T04:26:02.248Z,7.27
2022-09-29T04:28:31.333Z,7.29
2022-09-29T04:30:58.041Z,7.31
2022-09-29T04:33:24.547Z,7.32
2022-09-29T04:35:51.329Z,7.29
2022-09-29T04:38:17.867Z,7.31
2022-09-29T04:40:44.407Z,7.42
2022-09-29T04:43:10.963Z,7.36
2022-09-29T04:45:37.473Z,7.39
2022-09-29T04:48:04.103Z,7.41
2022-09-29T04:50:30.555Z,7.42
2022-09-29T04:52:57.331Z,7.45
2022-09-29T04:55:23.790Z,7.48
2022-09-29T04:57:50.364Z,7.53
2022-09-29T05:00:17.404Z,7.54
2022-09-29T05:02:48.925Z,7.56
2022-09-29T05:05:16.247Z,7.55
2022-09-29T05:07:43.007Z,7.63
2022-09-29T05:10:10.277Z,7.67
2022-09-29T05:12:36.770Z,7.66
2022-09-29T05:15:04.831Z,7.63
2022-09-29T05:17:31.326Z,7.70
2022-09-29T05:19:57.803Z,7.68
2022-09-29T05:22:25.911Z,7.71
2022-09-29T05:24:52.438Z,7.76
2022-09-29T05:27:24.319Z,7.78
2022-09-29T05:29:51.299Z,7.80
2022-09-29T05:32:17.772Z,7.82
2022-09-29T05:34:44.236Z,7.80
2022-09-29T05:37:10.743Z,7.83
2022-09-29T05:39:37.607Z,7.78
2022-09-29T05:42:11.151Z,7.79
2022-09-29T05:44:37.781Z,7.86
2022-09-29T05:47:04.259Z,7.87
2022-09-29T05:49:32.735Z,7.89
2022-09-29T05:52:00.020Z,8.01
2022-09-29T05:54:27.459Z,8.01
2022-09-29T05:56:54.079Z,8.07
2022-09-29T05:59:20.605Z,8.10
2022-09-29T06:01:47.184Z,8.14
2022-09-29T06:04:13.970Z,8.18
2022-09-29T06:06:40.550Z,8.20
2022-09-29T06:09:07.572Z,8.24
2022-09-29T06:11:34.055Z,8.29
2022-09-29T06:14:02.010Z,8.38
2022-09-29T06:16:30.056Z,8.40
2022-09-29T06:18:56.616Z,8.43
2022-09-29T06:21:25.645Z,8.48
2022-09-29T06:23:54.152Z,8.51
2022-09-29T06:26:23.982Z,8.57
2022-09-29T06:28:51.366Z,8.58
2022-09-29T06:31:19.465Z,8.59
2022-09-29T06:33:46.670Z,8.62
2022-09-29T06:36:39.431Z,8.68
2022-09-29T06:39:07.486Z,8.66
2022-09-29T06:41:35.254Z,8.68
2022-09-29T06:44:02.147Z,8.69
2022-09-29T06:46:28.857Z,8.70
2022-09-29T06:48:55.535Z,8.74
2022-09-29T06:51:23.736Z,8.77
2022-09-29T06:53:52.793Z,8.80
2022-09-29T06:56:22.117Z,8.83
2022-09-29T06:58:48.968Z,8.82
2022-09-29T07:01:15.511Z,8.81
2022-09-29T07:03:42.049Z,8.85
2022-09-29T07:06:25.685Z,8.88
2022-09-29T07:08:56.266Z,8.86
2022-09-29T07:11:23.691Z,8.90
2022-09-29T07:13:54.496Z,8.91
2022-09-29T07:16:23.846Z,8.95
2022-09-29T07:18:51.139Z,8.97
2022-09-29T07:21:18.498Z,8.98
2022-09-29T07:23:46.292Z,8.99
2022-09-29T07:26:13.407Z,8.99
2022-09-29T07:28:40.081Z,9.05
2022-09-29T07:31:14.429Z,9.08
2022-09-29T07:33:41.880Z,9.12
2022-09-29T07:36:08.653Z,9.14
2022-09-29T07:38:35.362Z,9.18
2022-09-29T07:41:07.821Z,9.20
2022-09-29T07:43:34.694Z,9.24
2022-09-29T07:46:01.319Z,9.24
2022-09-29T07:48:31.591Z,9.26
2022-09-29T07:51:06.517Z,9.31
2022-09-29T07:53:33.507Z,9.32
2022-09-29T07:56:14.261Z,9.37
2022-09-29T07:58:40.830Z,9.36
2022-09-29T08:01:10.593Z,9.37
2022-09-29T08:03:38.938Z,9.40
2022-09-29T08:06:06.153Z,9.39
2022-09-29T08:08:32.633Z,9.40
2022-09-29T08:11:07.068Z,9.42
2022-09-29T08:13:34.552Z,9.41
2022-09-29T08:16:01.727Z,9.42
2022-09-29T08:18:29.127Z,9.46
2022-09-29T08:20:57.761Z,9.46
2022-09-29T08:23:26.580Z,9.54
2022-09-29T08:26:06.975Z,9.57
2022-09-29T08:28:34.654Z,9.59
2022-09-29T08:31:05.846Z,9.62
2022-09-29T08:33:33.229Z,9.62
2022-09-29T08:36:00.433Z,9.59
2022-09-29T08:38:27.348Z,9.68
2022-09-29T08:40:57.346Z,9.66
2022-09-29T08:43:35.420Z,9.67
2022-09-29T08:46:09.083Z,9.64
2022-09-29T08:48:50.923Z,9.64
2022-09-29T08:51:42.711Z,9.65
2022-09-29T08:54:39.651Z,9.69
2022-09-29T08:57:09.083Z,9.70
2022-09-29T08:59:37.288Z,9.75
2022-09-29T09:02:29.877Z,9.78
2022-09-29T09:05:08.473Z,9.79
2022-09-29T09:07:45.634Z,9.84
2022-09-29T09:10:19.146Z,9.82
2022-09-29T09:12:56.508Z,9.83
2022-09-29T09:15:47.882Z,9.88
2022-09-29T09:18:27.705Z,9.86
2022-09-29T09:21:10.335Z,9.94
2022-09-29T09:24:00.564Z,10.04
2022-09-29T09:26:36.041Z,10.05
2022-09-29T09:29:06.027Z,10.08
2022-09-29T09:31:40.401Z,10.18
2022-09-29T09:34:41.766Z,10.22
2022-09-29T09:37:18.253Z,10.39
2022-09-29T09:39:49.489Z,10.51
2022-09-29T09:42:20.116Z,10.56
2022-09-29T09:44:50.110Z,10.63
2022-09-29T09:47:22.399Z,10.65
2022-09-29T09:49:52.613Z,10.72
2022-09-29T09:52:24.463Z,10.74
2022-09-29T09:54:53.978Z,10.75
2022-09-29T09:57:47.045Z,10.79
2022-09-29T10:00:16.185Z,10.84
2022-09-29T10:02:47.655Z,10.81
2022-09-29T10:05:17.361Z,10.86
2022-09-29T10:07:44.619Z,10.87
2022-09-29T10:10:20.011Z,10.84
2022-09-29T10:12:46.552Z,10.90
2022-09-29T10:15:25.950Z,10.92
2022-09-29T10:18:05.000Z,10.97
2022-09-29T10:20:37.285Z,10.99
2022-09-29T10:23:29.496Z,11.09
2022-09-29T10:26:09.093Z,11.23
2022-09-29T10:28:45.575Z,11.28
2022-09-29T10:31:26.944Z,11.30
2022-09-29T10:34:15.481Z,11.36
2022-09-29T10:36:53.564Z,11.52
2022-09-29T10:39:40.718Z,11.63
2022-09-29T10:42:31.442Z,11.68
2022-09-29T10:45:10.342Z,11.71
2022-09-29T10:47:37.669Z,11.79
2022-09-29T10:50:27.092Z,11.85
2022-09-29T10:53:00.005Z,11.87
2022-09-29T10:55:29.349Z,11.92
2022-09-29T10:57:58.554Z,11.84
2022-09-29T11:00:36.455Z,11.97
2022-09-29T11:03:21.451Z,12.07
2022-09-29T11:06:00.035Z,12.19
2022-09-29T11:08:27.841Z,12.19
2022-09-29T11:11:05.181Z,12.15
2022-09-29T11:13:36.214Z,12.09
2022-09-29T11:16:17.119Z,12.09
2022-09-29T11:18:47.347Z,12.13
2022-09-29T11:21:24.048Z,12.25
2022-09-29T11:24:19.870Z,12.40
2022-09-29T11:27:05.959Z,12.49
2022-09-29T11:29:42.815Z,12.48
2022-09-29T11:32:28.975Z,12.53
2022-09-29T11:35:18.758Z,12.46
2022-09-29T11:38:05.519Z,12.46
2022-09-29T11:40:44.192Z,12.52
2022-09-29T11:43:35.356Z,12.54
2022-09-29T11:46:26.647Z,12.48
2022-09-29T11:49:12.031Z,12.67
2022-09-29T11:51:57.860Z,12.80
2022-09-29T11:54:34.174Z,12.84
2022-09-29T11:57:06.059Z,12.79
2022-09-29T12:00:04.597Z,12.79
2022-09-29T12:02:46.280Z,12.62
2022-09-29T12:05:18.515Z,12.65
2022-09-29T12:07:58.126Z,12.52
2022-09-29T12:10:36.009Z,12.41
2022-09-29T12:13:41.463Z,12.28
2022-09-29T12:16:29.840Z,12.25
2022-09-29T12:19:17.317Z,12.25
2022-09-29T12:21:51.789Z,12.35
2022-09-29T12:24:35.128Z,12.39
2022-09-29T12:27:06.853Z,12.51
2022-09-29T12:29:37.791Z,12.62
2022-09-29T12:32:21.798Z,12.79
2022-09-29T12:35:01.233Z,12.82
2022-09-29T12:37:48.097Z,12.85
2022-09-29T12:40:21.023Z,12.99
2022-09-29T12:42:55.992Z,12.98
2022-09-29T12:45:32.848Z,12.92
2022-09-29T12:48:32.270Z,12.83
2022-09-29T12:51:34.450Z,12.64
2022-09-29T12:54:20.337Z,12.59
2022-09-29T12:56:52.230Z,12.57
2022-09-29T12:59:38.215Z,12.52
2022-09-29T13:02:22.787Z,12.58
2022-09-29T13:05:19.351Z,12.43
2022-09-29T13:07:55.201Z,12.30
2022-09-29T13:10:50.721Z,12.26
2022-09-29T13:13:51.614Z,12.31
2022-09-29T13:16:31.141Z,12.27
2022-09-29T13:19:20.307Z,12.37
2022-09-29T13:22:24.942Z,12.43
2022-09-29T13:25:13.435Z,12.42
2022-09-29T13:27:42.355Z,12.37
2022-09-29T13:30:11.642Z,12.37
2022-09-29T13:32:41.160Z,12.34
2022-09-29T13:35:17.210Z,12.32
2022-09-29T13:38:03.897Z,12.29
2022-09-29T13:40:31.178Z,12.29
2022-09-29T13:42:59.471Z,12.31
2022-09-29T13:45:31.632Z,12.38
2022-09-29T13:48:01.767Z,12.38
2022-09-29T13:50:47.870Z,12.45
2022-09-29T13:53:25.499Z,12.47
2022-09-29T13:55:56.760Z,12.52
2022-09-29T13:58:24.855Z,12.60
2022-09-29T14:00:53.691Z,12.54
2022-09-29T14:03:32.155Z,12.55
2022-09-29T14:06:41.231Z,12.49
2022-09-29T14:09:16.270Z,12.51
2022-09-29T14:11:43.605Z,12.50
2022-09-29T14:14:32.755Z,12.49
2022-09-29T14:17:09.939Z,12.45
2022-09-29T14:19:47.889Z,12.41
2022-09-29T14:22:26.399Z,12.37
2022-09-29T14:24:55.714Z,12.36
2022-09-29T14:27:22.138Z,12.32
2022-09-29T14:29:52.959Z,12.26
2022-09-29T14:32:36.004Z,12.30
2022-09-29T14:35:03.775Z,12.24
2022-09-29T14:37:31.411Z,12.19
2022-09-29T14:40:17.632Z,12.16
2022-09-29T14:42:44.087Z,12.13
2022-09-29T14:45:52.032Z,12.10
2022-09-29T14:48:49.196Z,12.04
2022-09-29T14:51:41.326Z,11.97
2022-09-29T14:54:42.475Z,11.96
2022-09-29T14:57:41.176Z,11.97
2022-09-29T15:00:19.745Z,11.97
2022-09-29T15:02:55.465Z,12.00
2022-09-29T15:05:33.402Z,11.98
2022-09-29T15:08:01.280Z,11.99
2022-09-29T15:10:31.628Z,12.04
2022-09-29T15:13:31.580Z,12.02
2022-09-29T15:16:21.890Z,12.01
2022-09-29T15:18:58.002Z,11.93
2022-09-29T15:21:47.163Z,11.89
2022-09-29T15:24:32.010Z,11.91
2022-09-29T15:27:05.972Z,11.81
2022-09-29T15:29:32.460Z,11.75
2022-09-29T15:31:58.948Z,11.73
2022-09-29T15:34:25.666Z,11.66
2022-09-29T15:36:53.986Z,11.65
2022-09-29T15:39:33.123Z,11.63
2022-09-29T15:42:04.906Z,11.62
2022-09-29T15:44:33.892Z,11.56
2022-09-29T15:47:00.848Z,11.65
2022-09-29T15:49:28.581Z,11.66
2022-09-29T15:52:04.218Z,11.68
2022-09-29T15:54:40.538Z,11.65
2022-09-29T15:57:26.490Z,11.73
2022-09-29T15:59:55.067Z,11.74
2022-09-29T16:02:30.222Z,11.77
2022-09-29T16:04:59.956Z,11.76
2022-09-29T16:07:34.400Z,11.78
2022-09-29T16:10:21.982Z,11.73
2022-09-29T16:13:01.663Z,11.74
2022-09-29T16:15:31.275Z,11.71
2022-09-29T16:17:59.621Z,11.68
2022-09-29T16:20:31.064Z,11.63
2022-09-29T16:23:06.226Z,11.61
2022-09-29T16:25:34.546Z,11.63
2022-09-29T16:28:04.762Z,11.61
2022-09-29T16:30:36.203Z,11.58
2022-09-29T16:33:20.830Z,11.57
2022-09-29T16:35:53.405Z,11.52
2022-09-29T16:38:35.900Z,11.47
2022-09-29T16:41:15.161Z,11.46
2022-09-29T16:43:44.893Z,11.41
2022-09-29T16:46:18.317Z,11.38
2022-09-29T16:48:45.499Z,11.37
2022-09-29T16:51:38.291Z,11.31
2022-09-29T16:54:05.510Z,11.27
2022-09-29T16:56:36.629Z,11.25
2022-09-29T16:59:16.180Z,11.22
2022-09-29T17:01:44.150Z,11.15
2022-09-29T17:04:10.959Z,11.15
2022-09-29T17:06:37.769Z,11.12
2022-09-29T17:09:05.328Z,11.10
2022-09-29T17:11:32.103Z,11.11
2022-09-29T17:13:58.677Z,11.09
2022-09-29T17:16:25.735Z,11.10
2022-09-29T17:18:56.131Z,11.07
2022-09-29T17:21:22.855Z,11.03
2022-09-29T17:23:49.318Z,11.03
2022-09-29T17:26:40.054Z,11.05
2022-09-29T17:29:07.608Z,11.00
2022-09-29T17:31:34.257Z,10.99
2022-09-29T17:34:02.447Z,10.98
2022-09-29T17:36:29.066Z,10.96
2022-09-29T17:38:55.681Z,10.94
2022-09-29T17:41:22.717Z,10.92
2022-09-29T17:43:49.243Z,10.90
2022-09-29T17:46:16.599Z,10.88
2022-09-29T17:48:43.307Z,10.91
2022-09-29T17:51:13.121Z,10.86
2022-09-29T17:53:40.264Z,10.86
2022-09-29T17:56:07.120Z,10.85
2022-09-29T17:58:33.763Z,10.82
2022-09-29T18:01:00.366Z,10.84
2022-09-29T18:03:29.356Z,10.86
2022-09-29T18:05:56.977Z,10.85
2022-09-29T18:08:25.788Z,10.82
2022-09-29T18:10:59.527Z,10.83
2022-09-29T18:13:27.666Z,10.76
2022-09-29T18:15:55.130Z,10.78
2022-09-29T18:18:22.386Z,10.81
2022-09-29T18:20:50.142Z,10.81
2022-09-29T18:23:21.049Z,10.76
2022-09-29T18:25:49.909Z,10.77
2022-09-29T18:28:17.290Z,10.78
2022-09-29T18:30:49.758Z,10.79
2022-09-29T18:33:18.077Z,10.76
2022-09-29T18:35:46.675Z,10.75
2022-09-29T18:38:13.744Z,10.72
2022-09-29T18:40:40.206Z,10.71
2022-09-29T18:43:07.273Z,10.67
2022-09-29T18:45:37.938Z,10.59
2022-09-29T18:48:06.557Z,10.61
2022-09-29T18:50:39.936Z,10.64
2022-09-29T18:53:06.469Z,10.66
2022-09-29T18:55:33.053Z,10.67
2022-09-29T18:58:00.541Z,10.65
2022-09-29T19:00:31.238Z,10.67
2022-09-29T19:02:59.858Z,10.68
2022-09-29T19:05:29.679Z,10.59
2022-09-29T19:07:58.532Z,10.63
2022-09-29T19:10:25.487Z,10.61
2022-09-29T19:12:58.460Z,10.60
2022-09-29T19:15:25.991Z,10.61
2022-09-29T19:17:56.774Z,10.57
2022-09-29T19:20:25.794Z,10.61
2022-09-29T19:22:52.943Z,10.62
2022-09-29T19:25:22.276Z,10.51
2022-09-29T19:27:49.055Z,10.52
2022-09-29T19:30:17.995Z,10.46
2022-09-29T19:32:44.565Z,10.49
2022-09-29T19:35:15.266Z,10.49
2022-09-29T19:37:41.779Z,10.45
2022-09-29T19:40:11.347Z,10.43
2022-09-29T19:42:37.832Z,10.41
2022-09-29T19:45:07.887Z,10.45
2022-09-29T19:47:35.099Z,10.45
2022-09-29T19:50:20.237Z,10.44
2022-09-29T19:52:46.845Z,10.43
2022-09-29T19:55:15.241Z,10.42
2022-09-29T19:57:42.380Z,10.40
2022-09-29T20:00:11.984Z,10.43
2022-09-29T20:02:38.628Z,10.44
2022-09-29T20:05:05.914Z,10.41
2022-09-29T20:07:32.740Z,10.42
2022-09-29T20:10:01.795Z,10.43
2022-09-29T20:12:28.333Z,10.41
2022-09-29T20:14:54.966Z,10.41
2022-09-29T20:17:24.755Z,10.40
2022-09-29T20:19:51.296Z,10.42
2022-09-29T20:22:20.173Z,10.43
2022-09-29T20:24:48.038Z,10.37
2022-09-29T20:27:14.539Z,10.38
2022-09-29T20:29:41.120Z,10.41
2022-09-29T20:32:08.509Z,10.40
2022-09-29T20:34:35.121Z,10.41
2022-09-29T20:37:01.571Z,10.38
2022-09-29T20:39:28.348Z,10.39
2022-09-29T20:41:55.236Z,10.39
2022-09-29T20:44:25.505Z,10.38
2022-09-29T20:46:53.919Z,10.39
2022-09-29T20:49:20.491Z,10.36
2022-09-29T20:51:46.973Z,10.38
2022-09-29T20:54:14.013Z,10.37
2022-09-29T20:56:41.649Z,10.39
2022-09-29T20:59:16.395Z,10.41
2022-09-29T21:01:43.607Z,10.37
2022-09-29T21:04:12.804Z,10.38
2022-09-29T21:06:41.706Z,10.36
2022-09-29T21:09:11.339Z,10.35
2022-09-29T21:11:39.884Z,10.30
2022-09-29T21:14:09.201Z,10.35
2022-09-29T21:16:36.635Z,10.35
2022-09-29T21:19:04.083Z,10.28
2022-09-29T21:21:31.216Z,10.32
2022-09-29T21:23:57.811Z,10.30
2022-09-29T21:26:26.344Z,10.30
2022-09-29T21:28:59.113Z,10.30
2022-09-29T21:31:27.481Z,10.31
2022-09-29T21:33:56.139Z,10.28
2022-09-29T21:36:24.511Z,10.24
2022-09-29T21:38:51.626Z,10.27
2022-09-29T21:41:23.119Z,10.30
2022-09-29T21:43:51.785Z,10.25
2022-09-29T21:46:23.833Z,10.23
2022-09-29T21:48:54.184Z,10.24
2022-09-29T21:51:23.212Z,10.29
2022-09-29T21:53:53.567Z,10.29
2022-09-29T21:56:22.247Z,10.25
2022-09-29T21:58:50.043Z,10.29
2022-09-29T22:01:16.785Z,10.28
2022-09-29T22:03:45.280Z,10.26
2022-09-29T22:06:14.016Z,10.23
2022-09-29T22:08:40.980Z,10.29
2022-09-29T22:11:08.301Z,10.25
2022-09-29T22:13:37.791Z,10.32
2022-09-29T22:16:10.021Z,10.33
2022-09-29T22:18:41.531Z,10.31
2022-09-29T22:21:11.372Z,10.26
2022-09-29T22:23:37.929Z,10.27
2022-09-29T22:26:05.332Z,10.31
2022-09-29T22:28:32.221Z,10.23
2022-09-29T22:31:09.753Z,10.28
2022-09-29T22:33:37.794Z,10.25
2022-09-29T22:36:04.930Z,10.24
2022-09-29T22:38:34.303Z,10.29
2022-09-29T22:41:00.829Z,10.29
2022-09-29T22:43:27.291Z,10.23
2022-09-29T22:45:53.960Z,10.30
2022-09-29T22:48:20.500Z,10.31
2022-09-29T22:50:47.926Z,10.31
2022-09-29T22:53:15.276Z,10.36
2022-09-29T22:55:42.273Z,10.34
2022-09-29T22:58:09.896Z,10.34
2022-09-29T23:00:37.486Z,10.29
2022-09-29T23:03:05.144Z,10.30
2022-09-29T23:05:32.052Z,10.33
2022-09-29T23:07:58.620Z,10.35
2022-09-29T23:10:25.180Z,10.38
2022-09-29T23:12:51.695Z,10.37
2022-09-29T23:15:18.362Z,10.35
2022-09-29T23:17:46.180Z,10.35
2022-09-29T23:20:12.631Z,10.35
2022-09-29T23:22:39.396Z,10.32
2022-09-29T23:25:06.150Z,10.25
2022-09-29T23:27:33.175Z,10.25
2022-09-29T23:29:59.775Z,10.29
2022-09-29T23:32:27.242Z,10.29
2022-09-29T23:34:53.691Z,10.30
2022-09-29T23:37:20.206Z,10.27
2022-09-29T23:39:46.672Z,10.26
2022-09-29T23:42:14.680Z,10.25
2022-09-29T23:44:41.122Z,10.25
2022-09-29T23:47:08.277Z,10.25
2022-09-29T23:49:34.726Z,10.28
2022-09-29T23:52:04.261Z,10.23
2022-09-29T23:54:32.725Z,10.25
2022-09-29T23:56:59.243Z,10.20
2022-09-29T23:59:26.251Z,10.10
